Time;durP1;ratioP1;P1;durP2;ratioP2;P2;SDS_P1;SDS_P2;PMS_P1;PMS_P2;Temp;Humidity;BMP_temperature;BMP_pressure;BME280_temperature;BME280_humidity;BME280_pressure;Samples;Min_cycle;Max_cycle;Signal;HPM_P1;HPM_P2
2022/07/20 00:00:26;;;;;;;;;;;;;;;;;;5037581;28;20006;-27
2022/07/20 00:02:52;;;;;;;;;;;;;;;;;;5036505;28;19913;-27
2022/07/20 00:05:18;;;;;;;;;;;;;;;;;;5037515;28;19999;-27
2022/07/20 00:07:44;;;;;;;;;;;;;;;;;;5037450;28;19917;-27
2022/07/20 00:12:54;;;;;;;;;;;;;;;;;;5037433;28;19919;-27
2022/07/20 00:15:20;;;;;;;;;;;;;;;;;;5037537;28;19948;-27
2022/07/20 00:17:46;;;;;;;;;;;;;;;;;;5037271;28;20003;-27
2022/07/20 00:20:12;;;;;;;;;;;;;;;;;;5037234;28;19940;-27
2022/07/20 00:22:38;;;;;;;;;;;;;;;;;;5037331;28;19913;-27
2022/07/20 00:25:04;;;;;;;;;;;;;;;;;;5037067;28;19932;-26
2022/07/20 00:27:30;;;;;;;;;;;;;;;;;;5037046;28;19913;-27
2022/07/20 00:29:56;;;;;;;;;;;;;;;;;;5036959;28;19928;-27
2022/07/20 00:32:22;;;;;;;;;;;;;;;;;;5036843;28;19992;-27
2022/07/20 00:34:48;;;;;;;;;;;;;;;;;;5037207;28;20002;-27
2022/07/20 00:37:14;;;;;;;;;;;;;;;;;;5037136;28;19913;-27
2022/07/20 00:39:40;;;;;;;;;;;;;;;;;;5037122;28;20055;-27
2022/07/20 00:42:06;;;;;;;;;;;;;;;;;;5036677;28;19913;-27
2022/07/20 00:44:32;;;;;;;;;;;;;;;;;;5036792;28;19921;-27
2022/07/20 00:46:58;;;;;;;;;;;;;;;;;;5036673;28;19913;-27
2022/07/20 00:49:24;;;;;;;;;;;;;;;;;;5036616;28;19987;-27
2022/07/20 00:51:50;;;;;;;;;;;;;;;;;;5036469;28;19913;-27
2022/07/20 00:54:16;;;;;;;;;;;;;;;;;;5036532;28;19924;-27
2022/07/20 00:56:42;;;;;;;;;;;;;;;;;;5036575;28;20266;-27
2022/07/20 00:59:08;;;;;;;;;;;;;;;;;;5036459;28;19967;-27
2022/07/20 01:01:34;;;;;;;;;;;;;;;;;;5036636;28;19923;-27
2022/07/20 01:04:00;;;;;;;;;;;;;;;;;;5036573;28;19992;-27
2022/07/20 01:06:26;;;;;;;;;;;;;;;;;;5036231;28;20379;-27
2022/07/20 01:08:52;;;;;;;;;;;;;;;;;;5036457;28;19956;-27
2022/07/20 01:11:18;;;;;;;;;;;;;;;;;;5036218;28;19920;-27
2022/07/20 01:13:44;;;;;;;;;;;;;;;;;;5036352;28;19913;-27
2022/07/20 01:16:10;;;;;;;;;;;;;;;;;;5036731;28;19916;-27
2022/07/20 01:18:36;;;;;;;;;;;;;;;;;;5036104;28;20071;-27
2022/07/20 01:21:02;;;;;;;;;;;;;;;;;;5036257;28;19914;-27
2022/07/20 01:23:28;;;;;;;;;;;;;;;;;;5035588;28;19959;-27
2022/07/20 01:25:54;;;;;;;;;;;;;;;;;;5036517;28;20354;-27
2022/07/20 01:28:20;;;;;;;;;;;;;;;;;;5035877;28;19920;-27
2022/07/20 01:30:46;;;;;;;;;;;;;;;;;;5036035;28;20344;-27
2022/07/20 01:33:12;;;;;;;;;;;;;;;;;;5035983;28;19971;-27
2022/07/20 01:35:38;;;;;;;;;;;;;;;;;;5036045;28;20346;-27
2022/07/20 01:38:04;;;;;;;;;;;;;;;;;;5035771;28;19916;-27
2022/07/20 01:40:30;;;;;;;;;;;;;;;;;;5035945;28;19913;-27
2022/07/20 01:42:56;;;;;;;;;;;;;;;;;;5035560;28;20000;-27
2022/07/20 01:45:22;;;;;;;;;;;;;;;;;;5035511;28;19921;-27
2022/07/20 01:47:48;;;;;;;;;;;;;;;;;;5035572;28;20378;-27
2022/07/20 01:50:14;;;;;;;;;;;;;;;;;;5036048;28;19913;-27
2022/07/20 01:52:40;;;;;;;;;;;;;;;;;;5035739;28;19913;-27
2022/07/20 01:55:06;;;;;;;;;;;;;;;;;;5035465;28;20245;-27
2022/07/20 01:57:32;;;;;;;;;;;;;;;;;;5036036;28;19909;-27
2022/07/20 01:59:58;;;;;;;;;;;;;;;;;;5035967;28;19920;-27
2022/07/20 02:02:24;;;;;;;;;;;;;;;;;;5035311;28;20390;-27
2022/07/20 02:04:50;;;;;;;;;;;;;;;;;;5035312;28;19963;-27
2022/07/20 02:07:16;;;;;;;;;;;;;;;;;;5035306;28;19915;-27
2022/07/20 02:09:42;;;;;;;;;;;;;;;;;;5035184;28;19924;-27
2022/07/20 02:12:08;;;;;;;;;;;;;;;;;;5035684;28;19920;-27
2022/07/20 02:14:34;;;;;;;;;;;;;;;;;;5035199;28;19913;-27
2022/07/20 02:17:00;;;;;;;;;;;;;;;;;;5035222;28;19913;-27
2022/07/20 02:19:26;;;;;;;;;;;;;;;;;;5035169;28;19929;-27
2022/07/20 02:21:52;;;;;;;;;;;;;;;;;;5035302;28;19920;-27
2022/07/20 02:24:18;;;;;;;;;;;;;;;;;;5035393;28;19909;-27
2022/07/20 02:26:44;;;;;;;;;;;;;;;;;;5035100;28;20358;-27
2022/07/20 02:29:10;;;;;;;;;;;;;;;;;;5034963;28;19914;-27
2022/07/20 02:31:36;;;;;;;;;;;;;;;;;;5035085;28;19913;-27
2022/07/20 02:34:02;;;;;;;;;;;;;;;;;;5035743;28;19917;-27
2022/07/20 02:36:28;;;;;;;;;;;;;;;;;;5039685;28;19932;-27
2022/07/20 02:38:54;;;;;;;;;;;;;;;;;;5039089;28;20229;-27
2022/07/20 02:41:20;;;;;;;;;;;;;;;;;;5039086;28;19913;-27
2022/07/20 02:43:46;;;;;;;;;;;;;;;;;;5042728;28;19928;-27
2022/07/20 02:46:12;;;;;;;;;;;;;;;;;;5038939;28;19917;-27
2022/07/20 02:48:38;;;;;;;;;;;;;;;;;;5039653;28;19920;-27
2022/07/20 02:51:04;;;;;;;;;;;;;;;;;;5038863;28;19913;-27
2022/07/20 02:53:30;;;;;;;;;;;;;;;;;;5039036;28;19919;-27
2022/07/20 02:55:57;;;;;;;;;;;;;;;;;;5039310;28;19928;-27
2022/07/20 02:58:23;;;;;;;;;;;;;;;;;;5038733;28;20403;-27
2022/07/20 03:00:49;;;;;;;;;;;;;;;;;;5038679;28;19937;-27
2022/07/20 03:03:15;;;;;;;;;;;;;;;;;;5038567;28;19909;-27
2022/07/20 03:05:41;;;;;;;;;;;;;;;;;;5038505;28;20015;-27
2022/07/20 03:08:07;;;;;;;;;;;;;;;;;;5039092;28;19915;-27
2022/07/20 03:10:33;;;;;;;;;;;;;;;;;;5038740;28;19917;-27
2022/07/20 03:12:59;;;;;;;;;;;;;;;;;;5038707;28;19913;-27
2022/07/20 03:15:25;;;;;;;;;;;;;;;;;;5038706;28;19952;-27
2022/07/20 03:17:51;;;;;;;;;;;;;;;;;;5038343;28;19924;-25
2022/07/20 03:20:17;;;;;;;;;;;;;;;;;;5038243;28;19913;-25
2022/07/20 03:22:43;;;;;;;;;;;;;;;;;;5038189;28;19991;-25
2022/07/20 03:25:09;;;;;;;;;;;;;;;;;;5038232;28;19923;-26
2022/07/20 03:27:35;;;;;;;;;;;;;;;;;;5038764;28;20003;-26
2022/07/20 03:30:01;;;;;;;;;;;;;;;;;;5038109;28;19920;-26
2022/07/20 03:32:27;;;;;;;;;;;;;;;;;;5037955;28;19913;-26
2022/07/20 03:34:53;;;;;;;;;;;;;;;;;;5038348;28;19913;-26
2022/07/20 03:37:19;;;;;;;;;;;;;;;;;;5038041;28;20272;-26
2022/07/20 03:39:45;;;;;;;;;;;;;;;;;;5039027;28;20015;-26
2022/07/20 03:42:11;;;;;;;;;;;;;;;;;;5037885;28;20303;-26
2022/07/20 03:44:37;;;;;;;;;;;;;;;;;;5037499;28;19921;-26
2022/07/20 03:47:03;;;;;;;;;;;;;;;;;;5038386;28;19917;-26
2022/07/20 03:49:29;;;;;;;;;;;;;;;;;;5037751;28;19913;-26
2022/07/20 03:51:55;;;;;;;;;;;;;;;;;;5038070;28;20423;-26
2022/07/20 03:54:21;;;;;;;;;;;;;;;;;;5037690;28;19920;-26
2022/07/20 03:56:47;;;;;;;;;;;;;;;;;;5037562;28;20012;-26
2022/07/20 03:59:13;;;;;;;;;;;;;;;;;;5038030;28;20328;-26
2022/07/20 04:01:39;;;;;;;;;;;;;;;;;;5037625;28;19936;-26
2022/07/20 04:04:05;;;;;;;;;;;;;;;;;;5037664;28;19917;-26
2022/07/20 04:06:31;;;;;;;;;;;;;;;;;;5037671;28;19991;-26
2022/07/20 04:08:57;;;;;;;;;;;;;;;;;;5037316;28;19967;-26
2022/07/20 04:11:23;;;;;;;;;;;;;;;;;;5037420;28;19920;-27
2022/07/20 04:13:49;;;;;;;;;;;;;;;;;;5037109;28;19909;-26
2022/07/20 04:16:15;;;;;;;;;;;;;;;;;;5037715;28;19959;-26
2022/07/20 04:18:41;;;;;;;;;;;;;;;;;;5037147;28;19952;-26
2022/07/20 04:21:07;;;;;;;;;;;;;;;;;;5037122;28;19913;-27
2022/07/20 04:23:33;;;;;;;;;;;;;;;;;;5036942;28;19920;-27
2022/07/20 04:25:59;;;;;;;;;;;;;;;;;;5037029;28;19913;-27
2022/07/20 04:28:25;;;;;;;;;;;;;;;;;;5037270;28;19920;-27
2022/07/20 04:30:51;;;;;;;;;;;;;;;;;;5036738;28;20348;-27
2022/07/20 04:33:18;;;;;;;;;;;;;;;;;;5036989;28;19909;-27
2022/07/20 04:35:44;;;;;;;;;;;;;;;;;;5037541;28;19921;-27
2022/07/20 04:38:13;;;;;;;;;;;;;;;;;;5037028;28;19913;-27
2022/07/20 04:40:39;;;;;;;;;;;;;;;;;;5036657;28;19913;-27
2022/07/20 04:43:05;;;;;;;;;;;;;;;;;;5037041;28;19917;-27
2022/07/20 04:45:31;;;;;;;;;;;;;;;;;;5036497;28;19925;-27
2022/07/20 04:47:57;;;;;;;;;;;;;;;;;;5036619;28;19966;-27
2022/07/20 04:50:23;;;;;;;;;;;;;;;;;;5036424;28;20268;-27
2022/07/20 04:52:49;;;;;;;;;;;;;;;;;;5036922;28;19920;-27
2022/07/20 04:55:15;;;;;;;;;;;;;;;;;;5036428;28;20012;-27
2022/07/20 04:57:41;;;;;;;;;;;;;;;;;;5034743;28;19952;-27
2022/07/20 05:00:07;;;;;;;;;;;;;;;;;;5036611;28;19909;-27
2022/07/20 05:02:33;;;;;;;;;;;;;;;;;;5036448;28;20325;-27
2022/07/20 05:04:59;;;;;;;;;;;;;;;;;;5036518;28;19996;-27
2022/07/20 05:07:25;;;;;;;;;;;;;;;;;;5036349;28;19913;-27
2022/07/20 05:09:51;;;;;;;;;;;;;;;;;;5036112;28;19921;-27
2022/07/20 05:12:17;;;;;;;;;;;;;;;;;;5036303;28;20251;-27
2022/07/20 05:14:43;;;;;;;;;;;;;;;;;;5036031;28;19960;-26
2022/07/20 05:17:09;;;;;;;;;;;;;;;;;;5036264;28;20406;-26
2022/07/20 05:19:35;;;;;;;;;;;;;;;;;;5035941;28;19917;-26
2022/07/20 05:22:01;;;;;;;;;;;;;;;;;;5035934;28;19975;-27
2022/07/20 05:24:27;;;;;;;;;;;;;;;;;;5036329;28;19913;-26
2022/07/20 05:26:53;;;;;;;;;;;;;;;;;;5035873;28;19909;-26
2022/07/20 05:29:19;;;;;;;;;;;;;;;;;;5036204;28;19970;-26
2022/07/20 05:31:45;;;;;;;;;;;;;;;;;;5035723;28;19967;-26
2022/07/20 05:34:11;;;;;;;;;;;;;;;;;;5035558;28;20023;-26
2022/07/20 05:36:37;;;;;;;;;;;;;;;;;;5035561;28;19913;-26
2022/07/20 05:39:03;;;;;;;;;;;;;;;;;;5035566;28;19913;-26
2022/07/20 05:41:29;;;;;;;;;;;;;;;;;;5036035;28;20003;-26
2022/07/20 05:43:55;;;;;;;;;;;;;;;;;;5035515;28;19924;-26
2022/07/20 05:46:21;;;;;;;;;;;;;;;;;;5036108;28;19924;-26
2022/07/20 05:48:47;;;;;;;;;;;;;;;;;;5036066;28;19913;-26
2022/07/20 05:51:13;;;;;;;;;;;;;;;;;;5035417;28;19913;-26
2022/07/20 05:53:39;;;;;;;;;;;;;;;;;;5035547;28;20066;-27
2022/07/20 05:56:05;;;;;;;;;;;;;;;;;;5035232;28;20003;-26
2022/07/20 05:58:31;;;;;;;;;;;;;;;;;;5035353;28;19913;-27
2022/07/20 06:00:57;;;;;;;;;;;;;;;;;;5035332;28;19913;-27
2022/07/20 06:03:23;;;;;;;;;;;;;;;;;;5035138;28;19920;-27
2022/07/20 06:05:49;;;;;;;;;;;;;;;;;;5035311;28;19970;-26
2022/07/20 06:08:15;;;;;;;;;;;;;;;;;;5034619;28;20328;-27
2022/07/20 06:10:40;;;;;;;;;;;;;;;;;;5034729;28;19925;-27
2022/07/20 06:13:06;;;;;;;;;;;;;;;;;;5035043;28;20259;-27
2022/07/20 06:15:32;;;;;;;;;;;;;;;;;;5035365;28;19971;-27
2022/07/20 06:17:58;;;;;;;;;;;;;;;;;;5035392;28;20275;-27
2022/07/20 06:20:24;;;;;;;;;;;;;;;;;;5035374;28;19959;-27
2022/07/20 06:22:50;;;;;;;;;;;;;;;;;;5035064;28;20262;-27
2022/07/20 06:25:16;;;;;;;;;;;;;;;;;;5035346;28;19913;-27
2022/07/20 06:27:43;;;;;;;;;;;;;;;;;;5034041;28;20237;-27
2022/07/20 06:30:09;;;;;;;;;;;;;;;;;;5034892;28;19999;-27
2022/07/20 06:32:35;;;;;;;;;;;;;;;;;;5034854;28;20226;-27
2022/07/20 06:35:01;;;;;;;;;;;;;;;;;;5035520;28;19920;-27
2022/07/20 06:37:27;;;;;;;;;;;;;;;;;;5035185;28;20349;-27
2022/07/20 06:39:53;;;;;;;;;;;;;;;;;;5035072;28;20359;-27
2022/07/20 06:42:20;;;;;;;;;;;;;;;;;;5034743;28;20001;-27
2022/07/20 06:44:46;;;;;;;;;;;;;;;;;;5034597;28;19925;-27
2022/07/20 06:47:12;;;;;;;;;;;;;;;;;;5035258;28;19918;-27
2022/07/20 06:49:38;;;;;;;;;;;;;;;;;;5033653;28;20345;-27
2022/07/20 06:52:04;;;;;;;;;;;;;;;;;;5034590;28;19970;-27
2022/07/20 06:54:30;;;;;;;;;;;;;;;;;;5034661;28;19936;-27
2022/07/20 06:56:56;;;;;;;;;;;;;;;;;;5034927;28;20306;-27
2022/07/20 06:59:22;;;;;;;;;;;;;;;;;;5033684;28;19913;-27
2022/07/20 07:01:48;;;;;;;;;;;;;;;;;;5034848;28;20249;-27
2022/07/20 07:04:14;;;;;;;;;;;;;;;;;;5033596;28;19909;-27
2022/07/20 07:06:40;;;;;;;;;;;;;;;;;;5034570;28;20411;-27
2022/07/20 07:09:06;;;;;;;;;;;;;;;;;;5034947;28;20003;-27
2022/07/20 07:11:32;;;;;;;;;;;;;;;;;;5034721;28;19990;-27
2022/07/20 07:13:58;;;;;;;;;;;;;;;;;;5034713;28;19917;-27
2022/07/20 07:16:25;;;;;;;;;;;;;;;;;;5034868;28;19991;-27
2022/07/20 07:18:51;;;;;;;;;;;;;;;;;;5034761;28;20236;-27
2022/07/20 07:21:17;;;;;;;;;;;;;;;;;;5037617;28;19913;-27
2022/07/20 07:23:45;;;;;;;;;;;;;;;;;;5038291;28;19913;-27
2022/07/20 07:26:11;;;;;;;;;;;;;;;;;;5038032;28;19959;-27
2022/07/20 07:28:37;;;;;;;;;;;;;;;;;;5037860;28;19913;-27
2022/07/20 07:31:03;;;;;;;;;;;;;;;;;;5037884;28;20260;-27
2022/07/20 07:33:29;;;;;;;;;;;;;;;;;;5038115;28;19968;-27
2022/07/20 07:35:55;;;;;;;;;;;;;;;;;;5038042;28;19913;-27
2022/07/20 07:38:21;;;;;;;;;;;;;;;;;;5037747;28;19978;-27
2022/07/20 07:40:47;;;;;;;;;;;;;;;;;;5037942;28;19913;-26
2022/07/20 07:43:13;;;;;;;;;;;;;;;;;;5037544;28;19910;-26
2022/07/20 07:45:39;;;;;;;;;;;;;;;;;;5037576;28;19921;-27
2022/07/20 07:48:09;;;;;;;;;;;;;;;;;;5037663;28;19913;-27
2022/07/20 07:50:35;;;;;;;;;;;;;;;;;;5037535;28;19927;-27
2022/07/20 07:53:01;;;;;;;;;;;;;;;;;;5037990;28;19917;-26
2022/07/20 07:55:27;;;;;;;;;;;;;;;;;;5037411;28;20201;-27
2022/07/20 07:57:53;;;;;;;;;;;;;;;;;;5037485;28;20264;-27
2022/07/20 08:00:19;;;;;;;;;;;;;;;;;;5037490;28;19909;-27
2022/07/20 08:02:46;;;;;;;;;;;;;;;;;;5037549;28;20003;-27
2022/07/20 08:05:12;;;;;;;;;;;;;;;;;;5037621;28;19983;-27
2022/07/20 08:07:40;;;;;;;;;;;;;;;;;;5037337;28;20352;-27
2022/07/20 08:10:06;;;;;;;;;;;;;;;;;;5037547;28;19924;-27
2022/07/20 08:12:32;;;;;;;;;;;;;;;;;;5037361;28;19924;-27
2022/07/20 08:14:58;;;;;;;;;;;;;;;;;;5037416;28;19913;-27
2022/07/20 08:17:23;;;;;;;;;;;;;;;;;;5037359;28;20252;-27
2022/07/20 08:19:50;;;;;;;;;;;;;;;;;;5037017;28;19920;-27
2022/07/20 08:22:15;;;;;;;;;;;;;;;;;;5037422;28;19917;-27
2022/07/20 08:24:41;;;;;;;;;;;;;;;;;;5036069;28;19913;-26
2022/07/20 08:27:07;;;;;;;;;;;;;;;;;;5037394;28;19913;-26
2022/07/20 08:29:33;;;;;;;;;;;;;;;;;;5035921;28;20337;-26
2022/07/20 08:31:59;;;;;;;;;;;;;;;;;;5035769;28;19924;-26
2022/07/20 08:34:25;;;;;;;;;;;;;;;;;;5036749;28;19909;-27
2022/07/20 08:36:51;;;;;;;;;;;;;;;;;;5036691;28;19921;-27
2022/07/20 08:39:18;;;;;;;;;;;;;;;;;;5036640;28;19939;-26
2022/07/20 08:41:44;;;;;;;;;;;;;;;;;;5036448;28;19920;-26
2022/07/20 08:44:10;;;;;;;;;;;;;;;;;;5036292;28;19928;-27
2022/07/20 08:46:36;;;;;;;;;;;;;;;;;;5036810;28;19924;-27
2022/07/20 08:49:02;;;;;;;;;;;;;;;;;;5036437;28;20259;-27
2022/07/20 08:51:28;;;;;;;;;;;;;;;;;;5036338;28;20344;-27
2022/07/20 08:53:54;;;;;;;;;;;;;;;;;;5036444;28;20000;-27
2022/07/20 08:56:20;;;;;;;;;;;;;;;;;;5036361;28;19921;-27
2022/07/20 08:58:46;;;;;;;;;;;;;;;;;;5036361;28;19971;-27
2022/07/20 09:01:12;;;;;;;;;;;;;;;;;;5036875;28;19945;-27
2022/07/20 09:03:41;;;;;;;;;;;;;;;;;;5036228;28;19913;-27
2022/07/20 09:06:07;;;;;;;;;;;;;;;;;;5036105;28;19913;-27
2022/07/20 09:08:33;;;;;;;;;;;;;;;;;;5036423;28;19913;-27
2022/07/20 09:10:59;;;;;;;;;;;;;;;;;;5036045;28;19963;-27
2022/07/20 09:13:25;;;;;;;;;;;;;;;;;;5036306;28;20280;-27
2022/07/20 09:15:54;;;;;;;;;;;;;;;;;;5035070;28;19971;-27
2022/07/20 09:18:20;;;;;;;;;;;;;;;;;;5036514;28;20244;-27
2022/07/20 09:20:46;;;;;;;;;;;;;;;;;;5035871;28;19913;-27
2022/07/20 09:23:13;;;;;;;;;;;;;;;;;;5035816;28;19920;-27
2022/07/20 09:25:38;;;;;;;;;;;;;;;;;;5035779;28;19949;-27
2022/07/20 09:28:05;;;;;;;;;;;;;;;;;;5035814;28;19917;-26
2022/07/20 09:30:31;;;;;;;;;;;;;;;;;;5035857;28;19971;-27
2022/07/20 09:32:57;;;;;;;;;;;;;;;;;;5035627;28;20328;-27
2022/07/20 09:35:23;;;;;;;;;;;;;;;;;;5035826;28;20225;-27
2022/07/20 09:37:49;;;;;;;;;;;;;;;;;;5036200;28;20000;-26
2022/07/20 09:40:15;;;;;;;;;;;;;;;;;;5035348;28;19913;-27
2022/07/20 09:42:41;;;;;;;;;;;;;;;;;;5035447;28;20324;-27
2022/07/20 09:45:07;;;;;;;;;;;;;;;;;;5035166;28;20008;-27
2022/07/20 09:47:33;;;;;;;;;;;;;;;;;;5035779;28;19913;-26
2022/07/20 09:49:59;;;;;;;;;;;;;;;;;;5035305;28;19924;-26
2022/07/20 09:52:25;;;;;;;;;;;;;;;;;;5035227;28;20348;-27
2022/07/20 09:54:51;;;;;;;;;;;;;;;;;;5035275;28;20098;-27
2022/07/20 09:57:17;;;;;;;;;;;;;;;;;;5035429;28;20374;-27
2022/07/20 09:59:46;;;;;;;;;;;;;;;;;;5035003;28;19917;-27
2022/07/20 10:02:12;;;;;;;;;;;;;;;;;;5035000;28;19913;-27
2022/07/20 10:04:38;;;;;;;;;;;;;;;;;;5035133;28;19917;-27
2022/07/20 10:07:04;;;;;;;;;;;;;;;;;;5034984;28;19952;-26
2022/07/20 10:09:30;;;;;;;;;;;;;;;;;;5035038;28;19913;-26
2022/07/20 10:11:56;;;;;;;;;;;;;;;;;;5034940;28;19917;-26
2022/07/20 10:14:22;;;;;;;;;;;;;;;;;;5035236;28;19924;-26
2022/07/20 10:16:48;;;;;;;;;;;;;;;;;;5034931;28;19917;-27
2022/07/20 10:19:14;;;;;;;;;;;;;;;;;;5035125;28;19910;-27
2022/07/20 10:21:40;;;;;;;;;;;;;;;;;;5035178;28;19913;-26
2022/07/20 10:24:06;;;;;;;;;;;;;;;;;;5034851;28;20398;-27
2022/07/20 10:26:32;;;;;;;;;;;;;;;;;;5035074;28;19924;-27
2022/07/20 10:28:58;;;;;;;;;;;;;;;;;;5034714;28;19921;-27
2022/07/20 10:31:24;;;;;;;;;;;;;;;;;;5034285;28;19919;-28
2022/07/20 10:33:50;;;;;;;;;;;;;;;;;;5034353;28;19909;-27
2022/07/20 10:39:01;;;;;;;;;;;;;;;;;;5034201;28;19983;-27
2022/07/20 10:41:33;;;;;;;;;;;;;;;;;;5034244;28;19967;-28
2022/07/20 10:43:59;;;;;;;;;;;;;;;;;;5033915;28;19940;-28
2022/07/20 10:46:25;;;;;;;;;;;;;;;;;;5035008;28;19909;-28
2022/07/20 10:48:51;;;;;;;;;;;;;;;;;;5035201;28;19924;-28
2022/07/20 10:51:17;;;;;;;;;;;;;;;;;;5034678;28;19909;-28
2022/07/20 10:53:43;;;;;;;;;;;;;;;;;;5034822;28;20332;-28
2022/07/20 10:56:09;;;;;;;;;;;;;;;;;;5037204;28;20008;-28
2022/07/20 10:58:35;;;;;;;;;;;;;;;;;;5038829;28;19953;-25
2022/07/20 11:01:01;;;;;;;;;;;;;;;;;;5038490;28;19916;-28
2022/07/20 11:03:29;;;;;;;;;;;;;;;;;;5038424;28;19920;-27
2022/07/20 11:05:55;;;;;;;;;;;;;;;;;;5038766;28;19913;-27
2022/07/20 11:08:21;;;;;;;;;;;;;;;;;;5037300;28;20008;-27
2022/07/20 11:10:47;;;;;;;;;;;;;;;;;;5038483;28;19928;-26
2022/07/20 11:13:13;;;;;;;;;;;;;;;;;;5038645;28;19913;-26
2022/07/20 11:15:39;;;;;;;;;;;;;;;;;;5038584;28;19946;-26
2022/07/20 11:18:05;;;;;;;;;;;;;;;;;;5038283;28;19920;-26
2022/07/20 11:20:31;;;;;;;;;;;;;;;;;;5038553;28;19924;-26
2022/07/20 11:22:57;;;;;;;;;;;;;;;;;;5038383;28;19913;-26
2022/07/20 11:25:24;;;;;;;;;;;;;;;;;;5038091;28;19917;-26
2022/07/20 11:27:50;;;;;;;;;;;;;;;;;;5037175;28;19956;-26
2022/07/20 11:30:16;;;;;;;;;;;;;;;;;;5038502;28;19952;-26
2022/07/20 11:32:42;;;;;;;;;;;;;;;;;;5037902;28;19928;-27
2022/07/20 11:35:08;;;;;;;;;;;;;;;;;;5037043;28;19921;-26
2022/07/20 11:37:34;;;;;;;;;;;;;;;;;;5037990;28;19939;-27
2022/07/20 11:40:00;;;;;;;;;;;;;;;;;;5038349;28;19959;-27
2022/07/20 11:42:26;;;;;;;;;;;;;;;;;;5037627;28;20000;-27
2022/07/20 11:44:52;;;;;;;;;;;;;;;;;;5037677;28;19964;-27
2022/07/20 11:47:18;;;;;;;;;;;;;;;;;;5038108;28;19987;-27
2022/07/20 11:49:44;;;;;;;;;;;;;;;;;;5037779;28;20012;-27
2022/07/20 11:52:10;;;;;;;;;;;;;;;;;;5037687;28;19920;-27
2022/07/20 11:54:39;;;;;;;;;;;;;;;;;;5037851;28;19909;-27
2022/07/20 11:57:05;;;;;;;;;;;;;;;;;;5037435;28;19940;-26
2022/07/20 11:59:31;;;;;;;;;;;;;;;;;;5037332;28;19921;-26
2022/07/20 12:01:57;;;;;;;;;;;;;;;;;;5037380;28;19917;-27
2022/07/20 12:04:24;;;;;;;;;;;;;;;;;;5037281;28;19913;-28
2022/07/20 12:06:50;;;;;;;;;;;;;;;;;;5037084;28;19971;-27
2022/07/20 12:09:16;;;;;;;;;;;;;;;;;;5037128;28;19917;-27
2022/07/20 12:11:42;;;;;;;;;;;;;;;;;;5037203;28;19913;-26
2022/07/20 12:14:08;;;;;;;;;;;;;;;;;;5037365;28;19910;-27
2022/07/20 12:16:34;;;;;;;;;;;;;;;;;;5037020;28;19913;-27
2022/07/20 12:19:00;;;;;;;;;;;;;;;;;;5037384;28;20348;-27
2022/07/20 12:21:27;;;;;;;;;;;;;;;;;;5036989;28;19913;-26
2022/07/20 12:23:53;;;;;;;;;;;;;;;;;;5037206;28;19913;-27
2022/07/20 12:26:19;;;;;;;;;;;;;;;;;;5037538;28;19920;-27
2022/07/20 12:28:45;;;;;;;;;;;;;;;;;;5036854;28;19909;-27
2022/07/20 12:31:11;;;;;;;;;;;;;;;;;;5037397;28;19947;-27
2022/07/20 12:33:37;;;;;;;;;;;;;;;;;;5036696;28;19909;-27
2022/07/20 12:36:03;;;;;;;;;;;;;;;;;;5036802;28;19913;-27
2022/07/20 12:38:29;;;;;;;;;;;;;;;;;;5037282;28;19913;-27
2022/07/20 12:40:55;;;;;;;;;;;;;;;;;;5036859;28;19913;-26
2022/07/20 12:43:21;;;;;;;;;;;;;;;;;;5036951;28;20320;-27
2022/07/20 12:45:47;;;;;;;;;;;;;;;;;;5036290;28;20268;-27
2022/07/20 12:48:13;;;;;;;;;;;;;;;;;;5036954;28;19909;-28
2022/07/20 12:50:39;;;;;;;;;;;;;;;;;;5036377;28;19917;-26
2022/07/20 12:53:05;;;;;;;;;;;;;;;;;;5036310;28;20246;-27
2022/07/20 12:55:31;;;;;;;;;;;;;;;;;;5035432;28;19913;-27
2022/07/20 12:57:57;;;;;;;;;;;;;;;;;;5036723;28;19913;-27
2022/07/20 13:00:23;;;;;;;;;;;;;;;;;;5036277;28;20359;-27
2022/07/20 13:02:49;;;;;;;;;;;;;;;;;;5036498;28;20323;-27
2022/07/20 13:05:15;;;;;;;;;;;;;;;;;;5036239;28;19952;-27
2022/07/20 13:07:46;;;;;;;;;;;;;;;;;;5036186;28;19924;-27
2022/07/20 13:10:12;;;;;;;;;;;;;;;;;;5036315;28;19928;-27
2022/07/20 13:12:38;;;;;;;;;;;;;;;;;;5036047;28;19909;-27
2022/07/20 13:15:04;;;;;;;;;;;;;;;;;;5036641;28;19982;-27
2022/07/20 13:17:30;;;;;;;;;;;;;;;;;;5035610;28;20295;-27
2022/07/20 13:19:56;;;;;;;;;;;;;;;;;;5036150;28;19928;-27
2022/07/20 13:22:22;;;;;;;;;;;;;;;;;;5036102;28;19909;-27
2022/07/20 13:24:48;;;;;;;;;;;;;;;;;;5036216;28;20303;-27
2022/07/20 13:27:14;;;;;;;;;;;;;;;;;;5036154;28;19913;-27
2022/07/20 13:29:40;;;;;;;;;;;;;;;;;;5035790;28;19914;-27
2022/07/20 13:32:06;;;;;;;;;;;;;;;;;;5035685;28;19913;-27
2022/07/20 13:34:32;;;;;;;;;;;;;;;;;;5035767;28;20336;-27
2022/07/20 13:36:58;;;;;;;;;;;;;;;;;;5036283;28;19974;-27
2022/07/20 13:39:24;;;;;;;;;;;;;;;;;;5035719;28;20019;-27
2022/07/20 13:41:50;;;;;;;;;;;;;;;;;;5035703;28;20279;-27
2022/07/20 13:44:17;;;;;;;;;;;;;;;;;;5035395;28;19996;-27
2022/07/20 13:46:44;;;;;;;;;;;;;;;;;;5035545;28;19920;-27
2022/07/20 13:49:10;;;;;;;;;;;;;;;;;;5035975;28;20238;-26
2022/07/20 13:51:36;;;;;;;;;;;;;;;;;;5035760;28;19995;-27
2022/07/20 13:54:02;;;;;;;;;;;;;;;;;;5035562;28;20382;-27
2022/07/20 13:56:30;;;;;;;;;;;;;;;;;;5035941;28;19920;-26
2022/07/20 13:58:56;;;;;;;;;;;;;;;;;;5035357;28;20348;-27
2022/07/20 14:01:22;;;;;;;;;;;;;;;;;;5035334;28;19914;-27
2022/07/20 14:03:48;;;;;;;;;;;;;;;;;;5035496;28;20328;-27
2022/07/20 14:06:14;;;;;;;;;;;;;;;;;;5035449;28;19913;-26
2022/07/20 14:08:40;;;;;;;;;;;;;;;;;;5035230;28;19949;-26
2022/07/20 14:11:06;;;;;;;;;;;;;;;;;;5035125;28;19924;-27
2022/07/20 14:13:32;;;;;;;;;;;;;;;;;;5035082;28;19919;-27
2022/07/20 14:15:58;;;;;;;;;;;;;;;;;;5035028;28;19920;-26
2022/07/20 14:18:24;;;;;;;;;;;;;;;;;;5035077;28;19918;-27
2022/07/20 14:20:50;;;;;;;;;;;;;;;;;;5035027;28;19967;-27
2022/07/20 14:23:16;;;;;;;;;;;;;;;;;;5034975;28;19987;-27
2022/07/20 14:25:42;;;;;;;;;;;;;;;;;;5035254;28;19913;-27
2022/07/20 14:28:08;;;;;;;;;;;;;;;;;;5035462;28;19956;-27
2022/07/20 14:30:34;;;;;;;;;;;;;;;;;;5034043;28;19960;-27
2022/07/20 14:33:00;;;;;;;;;;;;;;;;;;5034878;28;19919;-27
2022/07/20 14:35:26;;;;;;;;;;;;;;;;;;5035199;28;19913;-27
2022/07/20 14:37:52;;;;;;;;;;;;;;;;;;5034836;28;19909;-26
2022/07/20 14:40:18;;;;;;;;;;;;;;;;;;5035147;28;19915;-27
2022/07/20 14:42:44;;;;;;;;;;;;;;;;;;5034718;28;19913;-27
2022/07/20 14:45:10;;;;;;;;;;;;;;;;;;5034766;28;20365;-27
2022/07/20 14:47:36;;;;;;;;;;;;;;;;;;5034838;28;20008;-27
2022/07/20 14:50:02;;;;;;;;;;;;;;;;;;5035016;28;19956;-27
2022/07/20 14:52:28;;;;;;;;;;;;;;;;;;5035145;28;19909;-27
2022/07/20 14:54:54;;;;;;;;;;;;;;;;;;5034699;28;19920;-27
2022/07/20 14:57:20;;;;;;;;;;;;;;;;;;5034989;28;19909;-27
2022/07/20 14:59:46;;;;;;;;;;;;;;;;;;5034696;28;19924;-26
2022/07/20 15:02:12;;;;;;;;;;;;;;;;;;5034613;28;20279;-27
2022/07/20 15:04:38;;;;;;;;;;;;;;;;;;5034667;28;19913;-27
2022/07/20 15:07:04;;;;;;;;;;;;;;;;;;5034600;28;19913;-27
2022/07/20 15:09:31;;;;;;;;;;;;;;;;;;5035139;28;19917;-27
2022/07/20 15:11:57;;;;;;;;;;;;;;;;;;5034788;28;19971;-27
2022/07/20 15:14:23;;;;;;;;;;;;;;;;;;5034632;28;20291;-27
2022/07/20 15:16:49;;;;;;;;;;;;;;;;;;5035107;28;20243;-27
2022/07/20 15:19:15;;;;;;;;;;;;;;;;;;5034547;28;20001;-27
2022/07/20 15:21:41;;;;;;;;;;;;;;;;;;5034831;28;19949;-27
2022/07/20 15:24:07;;;;;;;;;;;;;;;;;;5034444;28;19913;-27
2022/07/20 15:26:33;;;;;;;;;;;;;;;;;;5034759;28;19935;-27
2022/07/20 15:28:59;;;;;;;;;;;;;;;;;;5034699;28;19966;-27
2022/07/20 15:31:25;;;;;;;;;;;;;;;;;;5034402;28;20350;-27
2022/07/20 15:33:51;;;;;;;;;;;;;;;;;;5034375;28;19939;-27
2022/07/20 15:36:17;;;;;;;;;;;;;;;;;;5034423;28;19924;-27
2022/07/20 15:38:43;;;;;;;;;;;;;;;;;;5034359;28;19924;-27
2022/07/20 15:41:09;;;;;;;;;;;;;;;;;;5035072;28;20340;-27
2022/07/20 15:43:35;;;;;;;;;;;;;;;;;;5037878;28;20391;-26
2022/07/20 15:46:02;;;;;;;;;;;;;;;;;;5037587;28;20028;-27
2022/07/20 15:48:28;;;;;;;;;;;;;;;;;;5038504;28;19913;-27
2022/07/20 15:50:54;;;;;;;;;;;;;;;;;;5038064;28;19913;-28
2022/07/20 15:53:20;;;;;;;;;;;;;;;;;;5037881;28;20276;-27
2022/07/20 15:55:47;;;;;;;;;;;;;;;;;;5037591;28;19940;-27
2022/07/20 15:58:14;;;;;;;;;;;;;;;;;;5037497;28;19963;-27
2022/07/20 16:00:40;;;;;;;;;;;;;;;;;;5037825;28;19913;-27
2022/07/20 16:03:06;;;;;;;;;;;;;;;;;;5037434;28;20344;-27
2022/07/20 16:05:32;;;;;;;;;;;;;;;;;;5037631;28;19971;-27
2022/07/20 16:07:58;;;;;;;;;;;;;;;;;;5037977;28;19909;-27
2022/07/20 16:10:24;;;;;;;;;;;;;;;;;;5037611;28;19921;-27
2022/07/20 16:12:50;;;;;;;;;;;;;;;;;;5037514;28;19967;-27
2022/07/20 16:15:16;;;;;;;;;;;;;;;;;;5037149;28;20340;-27
2022/07/20 16:17:42;;;;;;;;;;;;;;;;;;5037783;28;19909;-28
2022/07/20 16:20:08;;;;;;;;;;;;;;;;;;5037695;28;20364;-27
2022/07/20 16:22:34;;;;;;;;;;;;;;;;;;5037067;28;19960;-28
2022/07/20 16:25:02;;;;;;;;;;;;;;;;;;5037327;28;19913;-28
2022/07/20 16:27:28;;;;;;;;;;;;;;;;;;5037344;28;19913;-28
2022/07/20 16:29:53;;;;;;;;;;;;;;;;;;5036529;28;20362;-26
2022/07/20 16:32:19;;;;;;;;;;;;;;;;;;5036715;28;19909;-27
2022/07/20 16:34:45;;;;;;;;;;;;;;;;;;5037427;28;19952;-27
2022/07/20 16:37:11;;;;;;;;;;;;;;;;;;5036784;28;20229;-27
2022/07/20 16:39:37;;;;;;;;;;;;;;;;;;5036719;28;19916;-27
2022/07/20 16:42:03;;;;;;;;;;;;;;;;;;5036853;28;19952;-26